Time;durP1;ratioP1;P1;durP2;ratioP2;P2;SDS_P1;SDS_P2;PMS_P1;PMS_P2;Temp;Humidity;BMP_temperature;BMP_pressure;BME280_temperature;BME280_humidity;BME280_pressure;Samples;Min_cycle;Max_cycle;Signal;HPM_P1;HPM_P2
2023/09/05 00:00:04;;;;;;;5.97;5.57;;;;;;;15.59;97.07;102154.03;6223519;22;20119;-77
2023/09/05 00:02:31;;;;;;;5.57;5.20;;;;;;;15.58;97.23;102152.53;6224172;22;20115;-76
2023/09/05 00:04:58;;;;;;;5.82;5.43;;;;;;;15.58;96.77;102149.09;6198401;22;20020;-77
2023/09/05 00:07:27;;;;;;;5.97;5.47;;;;;;;15.57;97.16;102150.28;6222839;22;20018;-77
2023/09/05 00:09:56;;;;;;;5.75;5.30;;;;;;;15.54;96.95;102154.56;6223664;22;20071;-77
2023/09/05 00:12:23;;;;;;;7.32;5.72;;;;;;;15.52;97.31;102148.88;6197082;22;20020;-77
2023/09/05 00:14:49;;;;;;;7.03;5.90;;;;;;;15.51;97.27;102152.75;6223255;22;20100;-77
2023/09/05 00:17:16;;;;;;;6.10;5.57;;;;;;;15.49;97.26;102151.69;6222960;22;20439;-77
2023/09/05 00:19:42;;;;;;;5.90;5.40;;;;;;;15.46;97.42;102139.91;6198010;22;20025;-77
2023/09/05 00:22:09;;;;;;;6.65;5.60;;;;;;;15.45;97.85;102148.38;6249834;22;20083;-77
2023/09/05 00:24:39;;;;;;;6.10;5.70;;;;;;;15.42;98.10;102138.53;6222774;22;20479;-77
2023/09/05 00:27:13;;;;;;;6.50;5.38;;;;;;;15.40;98.10;102144.34;6222001;22;20020;-76
2023/09/05 00:29:41;;;;;;;5.82;5.35;;;;;;;15.40;97.89;102143.59;6249911;22;20465;-77
2023/09/05 00:32:09;;;;;;;6.13;5.65;;;;;;;15.37;98.28;102142.53;6222810;22;20013;-76
2023/09/05 00:34:37;;;;;;;5.78;5.25;;;;;;;15.36;98.52;102149.09;6222706;22;20021;-77
2023/09/05 00:37:07;;;;;;;6.28;5.70;;;;;;;15.35;98.35;102155.63;6250159;22;20075;-77
2023/09/05 00:39:35;;;;;;;5.88;5.20;;;;;;;15.33;98.08;102155.31;6222431;22;20005;-77
2023/09/05 00:42:05;;;;;;;7.53;5.45;;;;;;;15.31;98.73;102157.69;6250164;22;20021;-77
2023/09/05 00:44:32;;;;;;;7.88;5.68;;;;;;;15.27;98.49;102157.06;6249809;22;20020;-77
2023/09/05 00:47:00;;;;;;;6.05;5.55;;;;;;;15.20;98.97;102155.38;6222959;22;20027;-77
2023/09/05 00:49:27;;;;;;;6.03;5.53;;;;;;;15.18;99.14;102157.03;6249314;22;20140;-77
2023/09/05 00:51:57;;;;;;;6.18;5.70;;;;;;;15.16;98.35;102151.34;6249736;22;20019;-78
2023/09/05 00:54:24;;;;;;;5.85;5.43;;;;;;;15.12;98.67;102148.03;6249010;22;20062;-77
2023/09/05 00:56:52;;;;;;;5.78;5.38;;;;;;;15.09;98.73;102146.97;6249082;22;20552;-78
2023/09/05 00:59:21;;;;;;;8.82;6.13;;;;;;;15.06;99.53;102147.84;6248746;22;20020;-78
2023/09/05 01:01:48;;;;;;;6.28;5.75;;;;;;;15.06;99.99;102147.09;6222686;22;20040;-77
2023/09/05 01:04:15;;;;;;;6.38;5.68;;;;;;;15.02;100.00;102142.59;6249623;22;20019;-78
2023/09/05 01:07:01;;;;;;;6.45;5.95;;;;;;;15.01;99.99;102141.09;6249872;22;20012;-77
2023/09/05 01:09:33;;;;;;;6.13;5.50;;;;;;;14.98;100.00;102135.88;6221639;22;20488;-78
2023/09/05 01:12:02;;;;;;;5.90;5.40;;;;;;;14.93;100.00;102139.84;6223278;22;20092;-78
2023/09/05 01:14:28;;;;;;;7.78;5.75;;;;;;;14.91;100.00;102128.06;6221997;22;20407;-78
2023/09/05 01:17:01;;;;;;;6.28;5.68;;;;;;;14.89;100.00;102136.53;6222659;22;20048;-77
2023/09/05 01:19:29;;;;;;;6.18;5.57;;;;;;;14.89;100.00;102138.47;6222519;22;20403;-77
2023/09/05 01:22:06;;;;;;;5.88;5.38;;;;;;;14.84;100.00;102133.66;6222418;22;20025;-78
2023/09/05 01:24:39;;;;;;;7.32;5.72;;;;;;;14.82;100.00;102122.63;6221902;22;20025;-78
2023/09/05 01:27:07;;;;;;;6.53;5.93;;;;;;;14.80;100.00;102128.41;6249754;22;20017;-78
2023/09/05 01:29:35;;;;;;;7.10;6.38;;;;;;;14.81;100.00;102123.81;6222683;22;20065;-78
2023/09/05 01:32:03;;;;;;;6.60;5.43;;;;;;;14.79;100.00;102115.47;6250467;22;20426;-77
2023/09/05 01:34:30;;;;;;;6.85;6.15;;;;;;;14.77;100.00;102123.22;6249066;22;20051;-78
2023/09/05 01:36:58;;;;;;;6.20;5.78;;;;;;;14.78;100.00;102120.09;6222552;22;20112;-78
2023/09/05 01:39:24;;;;;;;7.78;5.70;;;;;;;14.80;100.00;102125.00;6247966;22;20021;-78
2023/09/05 01:41:51;;;;;;;7.00;6.30;;;;;;;14.80;100.00;102119.63;6249895;22;20401;-78
2023/09/05 01:44:18;;;;;;;8.30;5.80;;;;;;;14.80;100.00;102109.66;6221852;22;20047;-78
2023/09/05 01:46:45;;;;;;;6.32;5.72;;;;;;;14.81;100.00;102111.16;6223514;22;20092;-78
2023/09/05 01:49:12;;;;;;;9.00;6.03;;;;;;;14.81;100.00;102100.44;6197289;22;20020;-78
2023/09/05 01:51:39;;;;;;;6.25;5.75;;;;;;;14.78;100.00;102103.25;6249465;22;20013;-78
2023/09/05 01:54:05;;;;;;;6.65;6.05;;;;;;;14.76;100.00;102097.59;6196907;22;20051;-78
2023/09/05 01:56:32;;;;;;;8.20;6.28;;;;;;;14.75;100.00;102096.84;6249558;22;20067;-77
2023/09/05 01:58:59;;;;;;;6.70;6.07;;;;;;;14.74;100.00;102092.66;6222573;22;20438;-77
2023/09/05 02:01:27;;;;;;;7.03;6.32;;;;;;;14.75;100.00;102096.09;6220947;22;20423;-78
2023/09/05 02:03:54;;;;;;;8.38;6.50;;;;;;;14.73;100.00;102093.09;6250280;22;20477;-78
2023/09/05 02:06:21;;;;;;;6.68;6.13;;;;;;;14.74;100.00;102095.34;6221477;22;20435;-78
2023/09/05 02:08:48;;;;;;;7.90;6.03;;;;;;;14.71;100.00;102096.22;6221900;22;20027;-78
2023/09/05 02:11:14;;;;;;;7.40;6.28;;;;;;;14.68;100.00;102089.78;6197752;22;20017;-78
2023/09/05 02:13:41;;;;;;;8.45;5.75;;;;;;;14.67;100.00;102088.28;6249359;22;20020;-78
2023/09/05 02:16:08;;;;;;;7.05;6.45;;;;;;;14.67;100.00;102090.22;6249232;22;20013;-78
2023/09/05 02:18:35;;;;;;;7.57;6.53;;;;;;;14.66;100.00;102089.47;6222078;22;20065;-78
2023/09/05 02:21:02;;;;;;;13.32;6.30;;;;;;;14.65;100.00;102081.84;6249459;22;20358;-78
2023/09/05 02:23:29;;;;;;;7.28;6.43;;;;;;;14.64;100.00;102081.13;6221347;22;20023;-77
2023/09/05 02:25:59;;;;;;;6.40;5.90;;;;;;;14.64;100.00;102081.13;6222322;22;20013;-78
2023/09/05 02:28:27;;;;;;;8.02;6.55;;;;;;;14.64;100.00;102078.44;6197112;22;20842;-77
2023/09/05 02:30:54;;;;;;;6.45;5.95;;;;;;;14.64;100.00;102069.66;6249601;22;20066;-78
2023/09/05 02:33:22;;;;;;;6.60;6.05;;;;;;;14.65;100.00;102076.50;6221804;22;20522;-77
2023/09/05 02:35:49;;;;;;;6.45;5.85;;;;;;;14.62;100.00;102072.75;6249635;22;20097;-77
2023/09/05 02:38:16;;;;;;;6.68;6.05;;;;;;;14.59;100.00;102081.66;6248878;22;20016;-77
2023/09/05 02:40:46;;;;;;;7.32;6.68;;;;;;;14.57;100.00;102070.63;6221817;22;20021;-77
2023/09/05 02:43:13;;;;;;;8.35;6.13;;;;;;;14.57;100.00;102067.94;6222257;22;20500;-78
2023/09/05 02:45:50;;;;;;;6.60;6.10;;;;;;;14.60;100.00;102067.09;6248807;22;20019;-77
2023/09/05 02:48:17;;;;;;;6.38;5.78;;;;;;;14.60;100.00;102066.34;6249437;22;20024;-77
2023/09/05 02:50:44;;;;;;;6.50;5.93;;;;;;;14.61;100.00;102067.84;6249570;22;20027;-77
2023/09/05 02:53:10;;;;;;;8.38;6.55;;;;;;;14.57;100.00;102059.91;6220948;22;20020;-77
2023/09/05 02:55:44;;;;;;;6.50;6.00;;;;;;;14.57;100.00;102061.84;6249245;22;20043;-77
2023/09/05 02:58:10;;;;;;;6.97;6.18;;;;;;;14.52;100.00;102060.47;6221839;22;20481;-77
2023/09/05 03:00:37;;;;;;;6.55;5.95;;;;;;;14.49;100.00;102061.34;6222318;22;20096;-77
2023/09/05 03:03:04;;;;;;;6.07;5.68;;;;;;;14.46;100.00;102061.44;6222218;22;20429;-78
2023/09/05 03:05:33;;;;;;;7.28;5.80;;;;;;;14.43;100.00;102057.69;6221073;22;20099;-77
2023/09/05 03:08:01;;;;;;;7.45;6.05;;;;;;;14.41;100.00;102064.66;6222433;22;20161;-78
2023/09/05 03:10:27;;;;;;;8.05;6.05;;;;;;;14.35;100.00;102062.53;6221940;22;20021;-77
2023/09/05 03:12:54;;;;;;;6.88;6.30;;;;;;;14.32;100.00;102068.00;6223505;22;20027;-77
2023/09/05 03:15:23;;;;;;;6.93;6.32;;;;;;;14.28;100.00;102068.13;6222782;22;20416;-77
2023/09/05 03:17:50;;;;;;;9.00;5.90;;;;;;;14.26;100.00;102057.09;6198652;22;20021;-78
2023/09/05 03:20:18;;;;;;;7.03;5.65;;;;;;;14.23;100.00;102052.59;6222501;22;20044;-78
2023/09/05 03:22:45;;;;;;;6.85;6.25;;;;;;;14.19;100.00;102059.25;6223374;22;20100;-77
2023/09/05 03:25:11;;;;;;;7.82;5.65;;;;;;;14.17;100.00;102056.25;6223530;22;20021;-78
2023/09/05 03:27:38;;;;;;;7.32;6.28;;;;;;;14.15;100.00;102054.00;6223122;22;20352;-78
2023/09/05 03:30:07;;;;;;;6.60;6.00;;;;;;;14.12;100.00;102054.13;6223133;22;20016;-78
2023/09/05 03:32:33;;;;;;;6.65;6.15;;;;;;;14.08;100.00;102059.59;6198045;22;20017;-78
2023/09/05 03:35:00;;;;;;;6.45;5.82;;;;;;;14.05;100.00;102057.03;6198382;22;20017;-78
2023/09/05 03:37:28;;;;;;;7.00;6.03;;;;;;;14.01;100.00;102055.22;6222922;22;20529;-78
2023/09/05 03:39:54;;;;;;;6.47;5.78;;;;;;;13.98;100.00;102048.06;6223334;22;20024;-78
2023/09/05 03:42:22;;;;;;;6.72;6.22;;;;;;;13.96;100.00;102038.97;6249943;22;20048;-77
2023/09/05 03:44:50;;;;;;;6.68;6.15;;;;;;;13.95;100.00;102038.22;6223045;22;20075;-78
2023/09/05 03:47:17;;;;;;;6.78;6.07;;;;;;;13.91;100.00;102037.56;6249946;22;20071;-78
2023/09/05 03:49:44;;;;;;;6.47;5.97;;;;;;;13.92;100.00;102043.69;6222586;22;20396;-78
2023/09/05 03:52:10;;;;;;;6.55;6.00;;;;;;;13.91;100.00;102044.84;6222960;22;20024;-78
2023/09/05 03:54:37;;;;;;;7.53;6.63;;;;;;;13.86;100.00;102045.41;6222644;22;20016;-78
2023/09/05 03:57:04;;;;;;;6.95;6.35;;;;;;;13.83;100.00;102040.91;6223048;22;20025;-78
2023/09/05 03:59:31;;;;;;;6.90;6.30;;;;;;;13.81;100.00;102044.00;6222914;22;20075;-78
2023/09/05 04:01:59;;;;;;;7.40;6.05;;;;;;;13.81;100.00;102040.59;6222986;22;20048;-78
2023/09/05 04:04:26;;;;;;;6.70;6.03;;;;;;;13.79;100.00;102037.59;6249028;22;20621;-78
2023/09/05 04:06:52;;;;;;;7.07;6.07;;;;;;;13.78;100.00;102033.41;6250472;22;20017;-78
2023/09/05 04:09:19;;;;;;;6.60;6.07;;;;;;;13.77;100.00;102038.00;6249974;22;20362;-78
2023/09/05 04:11:45;;;;;;;6.50;6.00;;;;;;;13.75;100.00;102032.34;6250681;22;20482;-78
2023/09/05 04:14:12;;;;;;;6.72;6.13;;;;;;;13.74;100.00;102043.47;6223029;22;20016;-77
2023/09/05 04:16:39;;;;;;;6.30;5.70;;;;;;;13.72;100.00;102032.44;6222953;22;20024;-78
2023/09/05 04:19:08;;;;;;;6.93;6.13;;;;;;;13.69;100.00;102031.38;6222066;22;20013;-77
2023/09/05 04:21:39;;;;;;;7.13;5.78;;;;;;;13.67;100.00;102023.03;6249916;22;20075;-78
2023/09/05 04:24:06;;;;;;;6.85;6.07;;;;;;;13.65;100.00;102020.78;6222752;22;20084;-78
2023/09/05 04:26:37;;;;;;;6.43;5.93;;;;;;;13.64;100.00;102021.97;6250032;22;20047;-78
2023/09/05 04:29:05;;;;;;;6.65;5.70;;;;;;;13.63;100.00;102023.13;6250499;22;20043;-78
2023/09/05 04:31:31;;;;;;;7.10;6.22;;;;;;;13.62;100.00;102016.28;6250147;22;20092;-78
2023/09/05 04:33:58;;;;;;;7.22;6.43;;;;;;;13.60;100.00;102018.63;6250044;22;20021;-78
2023/09/05 04:36:25;;;;;;;6.95;6.35;;;;;;;13.59;100.00;102019.84;6222177;22;20032;-77
2023/09/05 04:38:52;;;;;;;7.07;6.30;;;;;;;13.55;100.00;102021.13;6249925;22;20463;-77
2023/09/05 04:41:20;;;;;;;6.80;6.18;;;;;;;13.55;100.00;102021.13;6249204;22;20087;-78
2023/09/05 04:43:50;;;;;;;7.20;6.20;;;;;;;13.50;100.00;102019.75;6250281;22;20016;-78
2023/09/05 04:46:16;;;;;;;7.00;6.40;;;;;;;13.49;100.00;102020.91;6249235;22;20647;-78
2023/09/05 04:48:43;;;;;;;7.53;6.30;;;;;;;13.50;100.00;102017.06;6222532;22;20012;-78
2023/09/05 04:51:09;;;;;;;7.60;5.78;;;;;;;13.50;100.00;102029.69;6249744;22;20023;-78
2023/09/05 04:53:36;;;;;;;8.73;6.32;;;;;;;13.44;100.00;102016.09;6249833;22;20194;-78
2023/09/05 04:56:03;;;;;;;6.78;5.50;;;;;;;13.45;100.00;102027.53;6223095;22;20011;-78
2023/09/05 04:58:30;;;;;;;7.60;6.00;;;;;;;13.44;100.00;102018.78;6249069;22;20016;-79
2023/09/05 05:01:02;;;;;;;6.97;6.13;;;;;;;13.44;100.00;102018.03;6222743;22;20012;-78
2023/09/05 05:03:30;;;;;;;7.55;5.88;;;;;;;13.43;100.00;102011.91;6248212;22;20047;-78
2023/09/05 05:05:57;;;;;;;6.90;6.30;;;;;;;13.45;100.00;102012.25;6222626;22;20079;-78
2023/09/05 05:08:23;;;;;;;6.43;5.82;;;;;;;13.50;100.00;102010.97;6249641;22;20447;-78
2023/09/05 05:10:51;;;;;;;7.47;6.72;;;;;;;13.54;100.00;102011.59;6249898;22;20013;-78
2023/09/05 05:13:22;;;;;;;8.40;5.90;;;;;;;13.56;100.00;102015.34;6249115;22;20012;-78
2023/09/05 05:15:48;;;;;;;7.47;6.28;;;;;;;13.60;100.00;102017.91;6249795;22;20096;-78
2023/09/05 05:18:15;;;;;;;7.78;6.30;;;;;;;13.62;100.00;102018.97;6249277;22;20201;-78
2023/09/05 05:20:41;;;;;;;6.85;6.25;;;;;;;13.64;100.00;102021.22;6249867;22;20024;-80
2023/09/05 05:23:08;;;;;;;6.53;5.85;;;;;;;13.64;100.00;102016.59;6221963;22;20024;-77
2023/09/05 05:25:36;;;;;;;14.25;6.30;;;;;;;13.67;100.00;102020.34;6249603;22;20109;-78
2023/09/05 05:28:03;;;;;;;6.70;6.10;;;;;;;13.69;100.00;102018.00;6222834;22;20016;-76
2023/09/05 05:30:34;;;;;;;10.75;5.85;;;;;;;13.72;100.00;102024.41;6248383;22;20092;-76
2023/09/05 05:33:01;;;;;;;7.18;5.40;;;;;;;13.78;100.00;102022.72;6249782;22;20017;-78
2023/09/05 05:35:27;;;;;;;6.07;5.47;;;;;;;13.86;100.00;102030.09;6248219;22;20088;-75
2023/09/05 05:37:54;;;;;;;6.22;5.55;;;;;;;13.92;100.00;102035.66;6249793;22;20017;-75
2023/09/05 05:40:21;;;;;;;7.30;5.40;;;;;;;13.98;100.00;102036.59;6248517;22;20099;-76
2023/09/05 05:42:48;;;;;;;5.68;5.18;;;;;;;14.02;100.00;102037.22;6222624;22;20020;-75
2023/09/05 05:45:14;;;;;;;7.80;5.57;;;;;;;14.05;100.00;102035.59;6248880;22;20071;-76
2023/09/05 05:47:41;;;;;;;9.48;5.18;;;;;;;14.11;100.00;102033.88;6249572;22;20473;-75
2023/09/05 05:50:09;;;;;;;9.13;5.25;;;;;;;14.18;100.00;102028.31;6222904;22;20023;-75
2023/09/05 05:52:36;;;;;;;6.25;4.68;;;;;;;14.26;100.00;102037.59;6249181;22;20020;-76
2023/09/05 05:55:03;;;;;;;6.00;5.10;;;;;;;14.37;100.00;102035.31;6249772;22;20024;-76
2023/09/05 05:57:29;;;;;;;6.60;5.45;;;;;;;14.75;100.00;102034.44;6248992;22;20024;-75
2023/09/05 05:59:56;;;;;;;8.32;5.07;;;;;;;17.22;90.93;102030.94;6249247;22;20017;-75
2023/09/05 06:02:22;;;;;;;5.03;4.55;;;;;;;19.63;77.09;102036.88;6248779;22;20433;-76
2023/09/05 06:04:49;;;;;;;5.03;4.63;;;;;;;21.37;68.72;102028.50;6250042;22;20027;-77
2023/09/05 06:07:15;;;;;;;4.68;4.22;;;;;;;22.62;63.32;102031.88;6249541;22;20473;-76
2023/09/05 06:09:42;;;;;;;5.75;4.60;;;;;;;23.27;59.76;102026.88;6249416;22;20025;-76
2023/09/05 06:12:08;;;;;;;5.25;4.63;;;;;;;23.60;58.43;102025.34;6249078;22;20088;-75
2023/09/05 06:14:35;;;;;;;6.25;4.40;;;;;;;23.75;56.50;102030.47;6248789;22;20465;-76
2023/09/05 06:17:03;;;;;;;6.85;4.53;;;;;;;24.01;56.13;102024.66;6249855;22;20016;-75
2023/09/05 06:19:29;;;;;;;7.82;4.40;;;;;;;23.82;55.17;102032.66;6248955;22;20056;-75
2023/09/05 06:21:58;;;;;;;6.95;4.82;;;;;;;23.45;56.85;102028.34;6249599;22;20421;-77
2023/09/05 06:24:25;;;;;;;4.93;4.50;;;;;;;23.24;58.04;102030.59;6249192;22;20092;-77
2023/09/05 06:26:51;;;;;;;5.47;4.65;;;;;;;23.14;58.59;102032.13;6222957;22;20020;-78
2023/09/05 06:29:18;;;;;;;5.30;4.90;;;;;;;22.76;58.52;102036.31;6248852;22;20469;-76
2023/09/05 06:31:47;;;;;;;13.85;4.68;;;;;;;22.39;60.11;102035.81;6249582;22;20040;-77
2023/09/05 06:34:14;;;;;;;5.18;4.45;;;;;;;21.83;61.95;102039.06;6249402;22;20104;-76
2023/09/05 06:36:41;;;;;;;8.20;4.38;;;;;;;21.46;62.54;102033.72;6249319;22;20447;-76
2023/09/05 06:39:08;;;;;;;5.20;4.03;;;;;;;20.97;64.59;102034.84;6248664;22;20036;-77
2023/09/05 06:41:35;;;;;;;4.90;4.40;;;;;;;20.57;66.44;102039.19;6249054;22;20021;-77
2023/09/05 06:44:01;;;;;;;5.18;4.75;;;;;;;20.39;67.68;102042.22;6248871;22;20032;-76
2023/09/05 06:46:28;;;;;;;5.13;4.60;;;;;;;20.30;68.39;102043.09;6248652;22;20450;-76
2023/09/05 06:48:56;;;;;;;6.07;4.40;;;;;;;20.19;69.21;102040.25;6222438;22;20186;-76
2023/09/05 06:51:22;;;;;;;5.20;4.70;;;;;;;20.12;70.06;102043.38;6248877;22;20472;-78
2023/09/05 06:53:49;;;;;;;5.22;4.47;;;;;;;20.03;70.77;102032.69;6249394;22;20017;-77
2023/09/05 06:56:17;;;;;;;5.60;4.53;;;;;;;20.01;70.52;102032.41;6248902;22;20439;-76
2023/09/05 06:58:44;;;;;;;5.85;4.72;;;;;;;19.98;71.31;102022.59;6248482;22;20120;-75
2023/09/05 07:01:12;;;;;;;6.88;4.80;;;;;;;20.02;70.85;102028.50;6248838;22;20020;-75
2023/09/05 07:03:39;;;;;;;6.05;4.90;;;;;;;20.05;70.82;102024.09;6248813;22;20020;-79
2023/09/05 07:06:06;;;;;;;8.27;4.10;;;;;;;20.05;70.52;102027.56;6250568;22;20017;-83
2023/09/05 07:08:33;;;;;;;6.35;4.55;;;;;;;20.08;71.15;102026.59;6222932;22;20020;-84
2023/09/05 07:11:00;;;;;;;4.80;4.40;;;;;;;20.02;71.59;102020.38;6232689;22;20016;-87
2023/09/05 07:13:27;;;;;;;4.82;4.40;;;;;;;20.15;72.33;102025.47;6221616;22;20491;-84
2023/09/05 07:15:56;;;;;;;6.68;4.70;;;;;;;20.24;71.19;102026.06;6249460;22;20394;-77
2023/09/05 07:18:24;;;;;;;5.35;4.60;;;;;;;20.27;70.88;102017.00;6248148;22;20023;-78
2023/09/05 07:20:51;;;;;;;7.88;4.50;;;;;;;20.40;70.29;102024.00;6221305;22;20016;-74
2023/09/05 07:23:18;;;;;;;6.95;4.43;;;;;;;20.50;69.80;102020.69;6248065;22;20024;-75
2023/09/05 07:25:45;;;;;;;17.40;5.00;;;;;;;20.58;67.64;102021.00;6248699;22;20013;-75
2023/09/05 07:28:11;;;;;;;202.90;17.52;;;;;;;20.70;67.97;102029.97;6247412;22;20016;-77
2023/09/05 07:30:39;;;;;;;98.03;11.93;;;;;;;20.84;67.75;102021.69;6248203;22;20293;-74
2023/09/05 07:33:06;;;;;;;35.42;5.40;;;;;;;20.96;66.90;102020.56;6248323;22;20044;-75
2023/09/05 07:35:33;;;;;;;36.70;6.40;;;;;;;21.04;66.81;102034.41;6248059;22;20037;-75
2023/09/05 07:37:59;;;;;;;22.17;4.00;;;;;;;21.14;65.51;102029.56;6248302;22;20451;-75
2023/09/05 07:40:26;;;;;;;8.65;3.28;;;;;;;21.20;65.24;102025.63;6247024;22;20300;-76
2023/09/05 07:42:53;;;;;;;6.80;3.40;;;;;;;21.33;64.96;102027.22;6247825;22;20028;-75
2023/09/05 07:45:21;;;;;;;12.13;3.00;;;;;;;21.43;63.82;102023.84;6248035;22;20067;-74
2023/09/05 07:47:47;;;;;;;5.82;3.33;;;;;;;21.51;61.92;102024.88;6249388;22;20017;-76
2023/09/05 07:50:14;;;;;;;9.07;3.55;;;;;;;21.66;63.06;102032.06;6248446;22;20482;-73
2023/09/05 07:52:40;;;;;;;5.65;3.17;;;;;;;21.80;63.04;102029.19;6248368;22;20044;-73
2023/09/05 07:55:07;;;;;;;4.07;2.90;;;;;;;21.96;62.29;102033.94;6248275;22;20451;-75
2023/09/05 07:57:36;;;;;;;3.40;3.00;;;;;;;22.06;60.88;102031.75;6247934;22;20092;-77
2023/09/05 08:00:03;;;;;;;2.80;2.60;;;;;;;22.19;60.72;102032.06;6250208;22;20021;-75
2023/09/05 08:02:38;;;;;;;2.97;2.67;;;;;;;22.35;60.19;102030.63;6249806;22;20037;-73
2023/09/05 08:05:06;;;;;;;4.03;2.78;;;;;;;22.50;61.49;102028.41;6250305;22;20446;-76
2023/09/05 08:07:33;;;;;;;5.60;2.72;;;;;;;22.57;59.55;102036.06;6250340;22;20067;-75
2023/09/05 08:10:00;;;;;;;3.88;2.60;;;;;;;22.63;58.80;102036.06;6249926;22;20047;-79
2023/09/05 08:12:26;;;;;;;3.35;2.92;;;;;;;22.74;58.25;102032.63;6222160;22;20017;-77
2023/09/05 08:14:54;;;;;;;2.92;2.70;;;;;;;22.80;58.37;102036.81;6223591;22;20017;-78
2023/09/05 08:17:21;;;;;;;2.70;2.60;;;;;;;22.79;56.97;102034.63;6250062;22;20044;-76
2023/09/05 08:19:48;;;;;;;3.90;2.67;;;;;;;22.85;56.97;102036.09;6251389;22;20451;-75
2023/09/05 08:22:15;;;;;;;4.80;3.30;;;;;;;22.96;57.09;102040.78;6249720;22;20027;-73
2023/09/05 08:24:41;;;;;;;3.95;2.67;;;;;;;23.00;56.30;102038.56;6248820;22;20136;-74
2023/09/05 08:27:12;;;;;;;4.70;3.00;;;;;;;23.13;57.31;102040.75;6250012;22;20421;-74
2023/09/05 08:29:40;;;;;;;3.58;2.65;;;;;;;23.26;57.26;102040.97;6249650;22;20012;-74
2023/09/05 08:32:06;;;;;;;5.75;2.85;;;;;;;23.39;56.45;102035.03;6249502;22;20023;-74
2023/09/05 08:34:33;;;;;;;3.33;2.70;;;;;;;23.38;55.33;102034.28;6249519;22;20424;-75
2023/09/05 08:37:00;;;;;;;4.43;2.65;;;;;;;23.43;57.08;102030.81;6250089;22;20438;-73
2023/09/05 08:39:26;;;;;;;3.17;2.90;;;;;;;23.54;55.28;102032.78;6195946;22;20020;-74
2023/09/05 08:41:53;;;;;;;5.60;2.95;;;;;;;23.63;56.03;102031.75;6250196;22;20070;-79
2023/09/05 08:44:19;;;;;;;3.13;2.80;;;;;;;23.64;55.63;102033.22;6221847;22;20422;-80
2023/09/05 08:46:47;;;;;;;2.67;2.58;;;;;;;23.80;57.42;102029.72;6250501;22;20012;-77
2023/09/05 08:49:14;;;;;;;2.95;2.75;;;;;;;23.89;54.84;102026.72;6249328;22;20071;-77
2023/09/05 08:51:42;;;;;;;4.93;3.03;;;;;;;23.91;54.77;102024.22;6250017;22;20055;-77
2023/09/05 08:54:13;;;;;;;3.05;2.85;;;;;;;24.00;54.92;102025.91;6250585;22;20447;-77
2023/09/05 08:56:40;;;;;;;3.20;2.92;;;;;;;24.10;55.14;102024.38;6249376;22;20016;-78
2023/09/05 08:59:08;;;;;;;3.10;2.80;;;;;;;24.22;55.89;102034.69;6249689;22;20456;-78
2023/09/05 09:01:35;;;;;;;3.20;2.88;;;;;;;24.32;54.99;102031.69;6249247;22;20416;-78
2023/09/05 09:04:02;;;;;;;3.13;2.83;;;;;;;24.32;55.06;102026.97;6249471;22;20027;-78
2023/09/05 09:06:29;;;;;;;4.45;2.80;;;;;;;24.48;54.67;102028.84;6196676;22;20040;-76
2023/09/05 09:08:56;;;;;;;3.20;3.00;;;;;;;24.57;54.79;102025.06;6249127;22;20012;-78
2023/09/05 09:11:23;;;;;;;4.70;3.13;;;;;;;24.59;54.22;102023.31;6221934;22;20020;-78
2023/09/05 09:13:57;;;;;;;3.35;3.10;;;;;;;24.68;54.96;102022.25;6249858;22;20031;-78
2023/09/05 09:16:24;;;;;;;3.45;3.17;;;;;;;24.85;53.77;102013.94;6249135;22;20092;-78
2023/09/05 09:19:02;;;;;;;4.82;2.80;;;;;;;24.93;53.99;102015.59;6249273;22;20013;-77
2023/09/05 09:21:29;;;;;;;7.03;3.05;;;;;;;25.00;53.67;102011.59;6249004;22;20485;-79
2023/09/05 09:24:00;;;;;;;3.92;2.80;;;;;;;25.20;54.20;102013.09;6248995;22;20016;-78
2023/09/05 09:26:27;;;;;;;4.27;2.97;;;;;;;25.20;52.01;102018.56;6248824;22;20377;-77
2023/09/05 09:28:53;;;;;;;19.38;3.95;;;;;;;25.22;53.30;102021.50;6248799;22;20274;-77
2023/09/05 09:31:26;;;;;;;12.15;3.53;;;;;;;25.32;52.46;102017.19;6248620;22;20023;-78
2023/09/05 09:33:57;;;;;;;5.00;2.92;;;;;;;25.33;51.99;102013.22;6249553;22;20023;-78
2023/09/05 09:36:33;;;;;;;7.90;3.28;;;;;;;25.45;52.94;102013.84;6248839;22;20012;-78
2023/09/05 09:39:08;;;;;;;4.28;2.78;;;;;;;25.67;53.40;102010.13;6248141;22;20012;-82
2023/09/05 09:41:41;;;;;;;9.20;2.85;;;;;;;25.81;53.05;102017.13;6249275;22;20021;-80
2023/09/05 09:44:08;;;;;;;4.18;2.90;;;;;;;25.84;52.45;102022.28;6222157;22;20016;-79
2023/09/05 09:46:35;;;;;;;6.10;2.92;;;;;;;25.95;52.00;102024.13;6249042;22;20032;-77
2023/09/05 09:49:06;;;;;;;5.97;2.53;;;;;;;26.09;51.70;102036.56;6249180;22;20017;-76
2023/09/05 09:51:34;;;;;;;3.10;2.80;;;;;;;26.14;50.68;102027.56;6248653;22;20510;-77
2023/09/05 09:54:06;;;;;;;4.50;3.10;;;;;;;26.25;51.33;102021.97;6249356;22;20064;-78
2023/09/05 09:56:34;;;;;;;2.67;2.30;;;;;;;26.36;50.78;102029.28;6249136;22;20017;-77
2023/09/05 09:59:02;;;;;;;6.68;3.67;;;;;;;26.53;50.75;102029.00;6222189;22;20453;-77
2023/09/05 10:01:29;;;;;;;9.55;2.60;;;;;;;26.62;50.54;102028.59;6248855;22;20091;-75
2023/09/05 10:03:56;;;;;;;5.22;2.90;;;;;;;26.77;51.13;102031.59;6248961;22;20023;-77
2023/09/05 10:06:24;;;;;;;2.90;2.70;;;;;;;26.86;50.06;102022.97;6247734;22;20017;-77
2023/09/05 10:08:51;;;;;;;3.75;2.63;;;;;;;26.96;49.76;102025.31;6249206;22;20429;-76
2023/09/05 10:11:20;;;;;;;2.63;2.40;;;;;;;27.07;50.58;102036.06;6248816;22;20096;-76
2023/09/05 10:13:48;;;;;;;3.45;2.70;;;;;;;27.15;50.29;102025.97;6247902;22;20019;-78
2023/09/05 10:16:17;;;;;;;3.70;2.88;;;;;;;27.28;50.48;102025.94;6248786;22;20012;-76
2023/09/05 10:18:46;;;;;;;3.33;3.03;;;;;;;27.30;49.33;102017.97;6249404;22;20039;-76
2023/09/05 10:21:15;;;;;;;3.13;2.65;;;;;;;27.34;49.11;102012.91;6248336;22;20020;-78
2023/09/05 10:23:42;;;;;;;7.20;2.45;;;;;;;27.38;49.34;102018.81;6248746;22;20044;-75
2023/09/05 10:26:12;;;;;;;5.43;3.05;;;;;;;27.44;49.10;102016.69;6248953;22;20017;-77
2023/09/05 10:28:41;;;;;;;5.60;2.35;;;;;;;27.52;49.59;102017.53;6248852;22;20047;-77
2023/09/05 10:31:18;;;;;;;4.00;3.08;;;;;;;27.44;48.24;102008.50;6248941;22;20023;-76
2023/09/05 10:33:45;;;;;;;3.58;2.92;;;;;;;27.44;49.46;102007.75;6249224;22;20013;-75
2023/09/05 10:36:39;;;;;;;4.28;2.80;;;;;;;27.62;49.92;102014.34;6248951;22;20116;-77
2023/09/05 10:39:32;;;;;;;3.03;2.78;;;;;;;27.64;49.13;102003.63;6248522;22;20013;-76
2023/09/05 10:41:59;;;;;;;7.63;2.78;;;;;;;27.53;48.99;102007.31;6222263;22;20020;-77
2023/09/05 10:44:26;;;;;;;8.20;3.22;;;;;;;27.50;48.97;102011.84;6247786;22;20473;-76
2023/09/05 10:46:55;;;;;;;3.20;3.00;;;;;;;27.44;48.43;102011.22;6248318;22;20533;-75
2023/09/05 10:49:22;;;;;;;5.07;3.08;;;;;;;27.49;49.03;102009.66;6220162;22;20048;-80
2023/09/05 10:52:15;;;;;;;3.05;2.72;;;;;;;27.52;49.28;101997.66;6248972;22;20052;-76
2023/09/05 10:54:42;;;;;;;8.10;2.60;;;;;;;27.55;48.58;102000.06;6247848;22;20012;-76
2023/09/05 10:57:34;;;;;;;4.63;2.75;;;;;;;27.57;48.67;101999.53;6248645;22;20354;-78
2023/09/05 11:00:28;;;;;;;3.22;2.60;;;;;;;27.56;48.26;101996.06;6248682;22;20043;-77
2023/09/05 11:03:09;;;;;;;2.70;2.50;;;;;;;27.50;47.57;102006.38;6248886;22;20016;-77
2023/09/05 11:05:41;;;;;;;3.45;2.45;;;;;;;27.63;46.49;102002.16;6247871;22;20016;-77
2023/09/05 11:08:22;;;;;;;6.22;2.60;;;;;;;27.64;47.40;101992.69;6248421;22;20017;-77
2023/09/05 11:10:53;;;;;;;5.82;2.40;;;;;;;27.75;46.40;101997.94;6196480;22;20545;-77
2023/09/05 11:13:19;;;;;;;5.45;2.42;;;;;;;27.72;46.79;101998.97;6248031;22;20095;-75
2023/09/05 11:15:46;;;;;;;3.35;2.65;;;;;;;27.70;48.00;101991.31;6249057;22;20017;-77
2023/09/05 11:18:17;;;;;;;7.85;2.55;;;;;;;27.78;47.41;101981.19;6248765;22;20447;-76
2023/09/05 11:20:46;;;;;;;4.13;2.55;;;;;;;27.75;47.44;101984.97;6248074;22;20013;-76
2023/09/05 11:23:14;;;;;;;3.33;2.45;;;;;;;27.86;48.03;101986.75;6221226;22;20099;-76
2023/09/05 11:25:49;;;;;;;5.43;2.55;;;;;;;27.93;46.52;101979.88;6221591;22;20099;-76